createdAt,value
2019-04-01T00:02:23.668Z,3.300000
2019-04-01T00:04:53.962Z,3.300000
2019-04-01T00:07:24.250Z,2.100000
2019-04-01T00:09:54.645Z,2.100000
2019-04-01T00:12:24.918Z,2.300000
2019-04-01T00:14:55.301Z,2.300000
2019-04-01T00:17:25.603Z,5.000000
2019-04-01T00:19:56.003Z,5.000000
2019-04-01T00:22:26.391Z,2.100000
2019-04-01T00:24:56.653Z,2.100000
2019-04-01T00:27:26.925Z,2.400000
2019-04-01T00:29:57.303Z,2.400000
2019-04-01T00:32:27.658Z,3.200000
2019-04-01T00:34:58.031Z,3.200000
2019-04-01T00:37:28.321Z,2.800000
2019-04-01T00:39:58.699Z,2.800000
2019-04-01T00:42:28.986Z,2.900000
2019-04-01T00:44:59.365Z,2.900000
2019-04-01T00:47:29.646Z,2.100000
2019-04-01T00:50:00.016Z,2.100000
2019-04-01T00:52:30.511Z,2.500000
2019-04-01T00:55:00.918Z,2.500000
2019-04-01T00:57:31.264Z,2.400000
2019-04-01T01:00:01.637Z,2.400000
2019-04-01T01:02:31.918Z,4.800000
2019-04-01T01:05:02.273Z,4.800000
2019-04-01T01:07:32.674Z,3.700000
2019-04-01T01:10:03.061Z,3.700000
2019-04-01T01:12:33.519Z,3.000000
2019-04-01T01:15:03.901Z,3.000000
2019-04-01T01:17:34.095Z,2.200000
2019-04-01T01:20:04.395Z,2.200000
2019-04-01T01:22:34.739Z,2.300000
2019-04-01T01:25:05.108Z,2.300000
2019-04-01T01:27:35.386Z,2.300000
2019-04-01T01:30:05.791Z,2.300000
2019-04-01T01:32:36.148Z,2.900000
2019-04-01T01:35:06.514Z,2.900000
2019-04-01T01:37:36.884Z,2.700000
2019-04-01T01:40:07.146Z,2.700000
2019-04-01T01:42:37.548Z,2.900000
2019-04-01T01:45:08.015Z,2.900000
2019-04-01T01:47:38.375Z,4.800000
2019-04-01T01:50:08.715Z,4.800000
2019-04-01T01:52:39.109Z,4.600000
2019-04-01T01:55:09.482Z,4.600000
2019-04-01T01:57:39.833Z,2.500000
2019-04-01T02:00:10.181Z,2.500000
2019-04-01T02:02:40.528Z,6.200000
2019-04-01T02:05:15.921Z,6.200000
2019-04-01T02:07:51.233Z,4.700000
2019-04-01T02:10:21.560Z,4.700000
2019-04-01T02:12:51.943Z,3.200000
2019-04-01T02:15:22.199Z,3.200000
2019-04-01T02:17:57.576Z,3.300000
2019-04-01T02:20:33.008Z,3.300000
2019-04-01T02:23:03.266Z,3.500000
2019-04-01T02:25:33.643Z,3.500000
2019-04-01T02:28:04.085Z,2.900000
2019-04-01T02:30:39.495Z,2.900000
2019-04-01T02:33:14.935Z,2.000000
2019-04-01T02:35:45.222Z,2.000000
2019-04-01T02:38:15.758Z,2.900000
2019-04-01T02:40:46.048Z,2.900000
2019-04-01T02:43:16.393Z,3.300000
2019-04-01T02:45:46.653Z,3.300000
2019-04-01T02:48:17.104Z,2.500000
2019-04-01T02:50:47.557Z,2.500000
2019-04-01T02:53:18.010Z,3.700000
2019-04-01T02:55:48.347Z,3.700000
2019-04-01T02:58:18.712Z,1.700000
2019-04-01T03:00:49.057Z,1.700000
2019-04-01T03:03:19.430Z,1.400000
2019-04-01T03:05:49.886Z,1.400000
2019-04-01T03:08:20.248Z,2.600000
2019-04-01T03:10:55.591Z,2.600000
2019-04-01T03:13:25.947Z,3.500000
2019-04-01T03:15:56.343Z,3.500000
2019-04-01T03:18:26.701Z,2.600000
2019-04-01T03:20:57.140Z,2.600000
2019-04-01T03:23:27.507Z,2.800000
2019-04-01T03:25:57.886Z,2.800000
2019-04-01T03:28:28.273Z,4.000000
2019-04-01T03:30:58.609Z,4.000000
2019-04-01T03:33:29.074Z,5.600000
2019-04-01T03:35:59.434Z,5.600000
2019-04-01T03:38:29.805Z,3.200000
2019-04-01T03:41:00.227Z,3.200000
2019-04-01T03:43:30.646Z,3.000000
2019-04-01T03:46:01.086Z,3.000000
2019-04-01T03:48:31.450Z,1.500000
2019-04-01T03:51:01.834Z,1.500000
2019-04-01T03:53:32.307Z,2.000000
2019-04-01T03:56:02.657Z,2.000000
2019-04-01T03:58:32.942Z,3.100000
2019-04-01T04:01:03.314Z,3.100000
2019-04-01T04:03:33.879Z,2.200000
2019-04-01T04:06:04.239Z,2.200000
2019-04-01T04:08:34.596Z,2.100000
2019-04-01T04:11:04.878Z,2.100000
2019-04-01T04:13:35.271Z,2.800000
2019-04-01T04:16:05.801Z,2.200000
2019-04-01T04:18:36.167Z,2.200000
2019-04-01T04:21:06.543Z,3.100000
2019-04-01T04:23:41.971Z,3.100000
2019-04-01T04:26:12.342Z,6.100000
2019-04-01T04:28:42.693Z,6.100000
2019-04-01T04:31:13.062Z,2.400000
2019-04-01T04:33:43.421Z,2.400000
2019-04-01T04:36:13.760Z,2.800000
2019-04-01T04:38:44.030Z,2.800000
2019-04-01T04:41:14.470Z,2.700000
2019-04-01T04:43:44.825Z,2.700000
2019-04-01T04:46:15.162Z,2.200000
2019-04-01T04:48:45.506Z,2.200000
2019-04-01T04:51:15.860Z,2.800000
2019-04-01T04:53:46.199Z,2.800000
2019-04-01T04:56:16.528Z,4.500000
2019-04-01T04:58:46.883Z,4.500000
2019-04-01T05:01:17.212Z,1.200000
2019-04-01T05:03:47.565Z,1.200000
2019-04-01T05:06:17.997Z,1.700000
2019-04-01T05:08:48.338Z,1.700000
2019-04-01T05:11:18.845Z,1.400000
2019-04-01T05:13:49.319Z,1.400000
2019-04-01T05:16:19.912Z,3.900000
2019-04-01T05:18:50.271Z,3.900000
2019-04-01T05:21:20.605Z,3.500000
2019-04-01T05:23:50.941Z,3.500000
2019-04-01T05:26:21.379Z,3.900000
2019-04-01T05:28:51.748Z,3.900000
2019-04-01T05:31:22.087Z,4.800000
2019-04-01T05:33:55.610Z,4.800000
2019-04-01T05:36:26.242Z,3.600000
2019-04-01T05:38:56.602Z,3.600000
2019-04-01T05:41:26.956Z,3.500000
2019-04-01T05:43:57.297Z,3.500000
2019-04-01T05:46:27.550Z,3.300000
2019-04-01T05:48:57.905Z,3.300000
2019-04-01T05:51:28.486Z,2.600000
2019-04-01T05:53:58.813Z,2.600000
2019-04-01T05:56:29.151Z,3.500000
2019-04-01T05:58:59.522Z,3.500000
2019-04-01T06:01:29.898Z,4.900000
2019-04-01T06:04:00.264Z,4.900000
2019-04-01T06:06:30.662Z,6.300000
2019-04-01T06:09:01.006Z,6.300000
2019-04-01T06:11:31.380Z,12.800000
2019-04-01T06:14:01.717Z,12.800000
2019-04-01T06:16:32.053Z,10.900000
2019-04-01T06:19:05.779Z,10.900000
2019-04-01T06:21:36.425Z,9.100000
2019-04-01T06:24:06.785Z,9.100000
2019-04-01T06:26:37.181Z,14.400000
2019-04-01T06:29:07.488Z,14.400000
2019-04-01T06:31:37.735Z,16.300000
2019-04-01T06:34:07.981Z,16.300000
2019-04-01T06:36:39.010Z,11.400000
2019-04-01T06:39:09.462Z,11.400000
2019-04-01T06:41:39.814Z,10.800000
2019-04-01T06:44:10.167Z,10.800000
2019-04-01T06:46:40.649Z,10.900000
2019-04-01T06:49:11.056Z,10.900000
2019-04-01T06:51:41.506Z,8.300000
2019-04-01T06:54:11.855Z,8.300000
2019-04-01T06:56:42.117Z,9.800000
2019-04-01T06:59:12.652Z,9.800000
2019-04-01T07:01:43.019Z,8.100000
2019-04-01T07:04:13.390Z,8.100000
2019-04-01T07:06:43.779Z,11.200000
2019-04-01T07:09:14.155Z,11.200000
2019-04-01T07:11:44.540Z,6.200000
2019-04-01T07:14:15.086Z,6.200000
2019-04-01T07:16:45.442Z,7.600000
2019-04-01T07:19:15.838Z,7.600000
2019-04-01T07:21:46.185Z,4.100000
2019-04-01T07:24:16.612Z,4.100000
2019-04-01T07:26:46.929Z,6.000000
2019-04-01T07:29:17.250Z,6.000000
2019-04-01T07:31:47.703Z,5.100000
2019-04-01T07:34:18.032Z,5.100000
2019-04-01T07:36:48.398Z,5.000000
2019-04-01T07:39:18.841Z,5.000000
2019-04-01T07:41:49.205Z,5.200000
2019-04-01T07:44:19.570Z,5.200000
2019-04-01T07:46:49.955Z,3.600000
2019-04-01T07:49:20.218Z,3.600000
2019-04-01T07:51:50.690Z,5.200000
2019-04-01T07:54:20.987Z,5.200000
2019-04-01T07:56:51.453Z,2.600000
2019-04-01T07:59:21.742Z,2.600000
2019-04-01T08:01:52.990Z,3.500000
2019-04-01T08:04:23.407Z,3.500000
2019-04-01T08:06:53.964Z,4.300000
2019-04-01T08:09:24.334Z,4.300000
2019-04-01T08:11:54.624Z,4.000000
2019-04-01T08:14:24.915Z,4.000000
2019-04-01T08:16:58.464Z,4.200000
2019-04-01T08:19:29.270Z,4.200000
2019-04-01T08:21:59.546Z,6.900000
2019-04-01T08:24:29.839Z,6.900000
2019-04-01T08:27:00.181Z,4.800000
2019-04-01T08:29:35.554Z,4.800000
2019-04-01T08:32:05.884Z,4.900000
2019-04-01T08:34:36.267Z,4.900000
2019-04-01T08:37:06.573Z,2.900000
2019-04-01T08:39:36.970Z,2.900000
2019-04-01T08:42:12.294Z,3.500000
2019-04-01T08:44:42.687Z,3.500000
2019-04-01T08:47:13.006Z,5.100000
2019-04-01T08:49:43.433Z,5.100000
2019-04-01T08:52:13.937Z,6.800000
2019-04-01T08:54:45.423Z,6.800000
2019-04-01T08:57:16.795Z,6.100000
2019-04-01T08:59:47.133Z,5.800000
2019-04-01T09:02:18.530Z,5.800000
2019-04-01T09:04:49.032Z,5.400000
2019-04-01T09:07:19.502Z,5.400000
2019-04-01T09:09:49.911Z,6.200000
2019-04-01T09:12:20.342Z,6.200000
2019-04-01T09:14:50.631Z,4.600000
2019-04-01T09:17:21.040Z,4.600000
2019-04-01T09:19:51.402Z,3.700000
2019-04-01T09:22:21.662Z,3.700000
2019-04-01T09:24:52.058Z,4.900000
2019-04-01T09:27:22.486Z,4.900000
2019-04-01T09:29:52.876Z,4.900000
2019-04-01T09:32:23.164Z,4.900000
2019-04-01T09:34:53.537Z,3.400000
2019-04-01T09:37:23.920Z,3.400000
2019-04-01T09:39:54.347Z,4.900000
2019-04-01T09:42:24.677Z,4.900000
2019-04-01T09:44:55.025Z,4.400000
2019-04-01T09:47:25.360Z,4.400000
2019-04-01T09:49:55.641Z,3.300000
2019-04-01T09:52:26.014Z,3.300000
2019-04-01T09:54:56.245Z,3.600000
2019-04-01T09:57:26.505Z,3.600000
2019-04-01T09:59:56.801Z,3.900000
2019-04-01T10:02:32.048Z,3.900000
2019-04-01T10:05:02.755Z,3.400000
2019-04-01T10:07:33.376Z,3.400000
2019-04-01T10:10:03.801Z,5.300000
2019-04-01T10:12:34.056Z,5.300000
2019-04-01T10:15:04.414Z,4.100000
2019-04-01T10:17:34.783Z,4.100000
2019-04-01T10:20:05.235Z,3.100000
2019-04-01T10:22:40.531Z,3.100000
2019-04-01T10:25:10.899Z,3.400000
2019-04-01T10:27:41.204Z,3.400000
2019-04-01T10:30:11.602Z,5.400000
2019-04-01T10:32:41.993Z,5.400000
2019-04-01T10:35:12.422Z,4.500000
2019-04-01T10:37:42.740Z,4.500000
2019-04-01T10:40:13.173Z,2.700000
2019-04-01T10:42:43.486Z,2.700000
2019-04-01T10:45:13.811Z,3.100000
2019-04-01T10:47:44.249Z,3.100000
2019-04-01T10:50:14.806Z,3.200000
2019-04-01T10:52:45.196Z,3.200000
2019-04-01T10:55:15.543Z,3.100000
2019-04-01T10:57:46.009Z,3.100000
2019-04-01T11:00:16.542Z,4.000000
2019-04-01T11:02:49.937Z,4.000000
2019-04-01T11:05:20.517Z,5.600000
2019-04-01T11:07:50.942Z,5.600000
2019-04-01T11:10:21.303Z,5.200000
2019-04-01T11:12:51.571Z,5.200000
2019-04-01T11:15:21.946Z,2.000000
2019-04-01T11:17:52.819Z,2.000000
2019-04-01T11:20:23.271Z,4.200000
2019-04-01T11:22:53.507Z,4.200000
2019-04-01T11:25:23.835Z,3.600000
2019-04-01T11:27:54.284Z,3.600000
2019-04-01T11:30:24.598Z,3.200000
2019-04-01T11:32:55.096Z,3.200000
2019-04-01T11:35:25.592Z,3.100000
2019-04-01T11:37:56.033Z,3.100000
2019-04-01T11:40:26.410Z,3.400000
2019-04-01T11:42:56.850Z,3.400000
2019-04-01T11:45:27.383Z,4.900000
2019-04-01T11:47:57.705Z,4.900000
2019-04-01T11:50:28.151Z,4.100000
2019-04-01T11:52:58.558Z,4.100000
2019-04-01T11:55:28.876Z,3.300000
2019-04-01T11:57:59.132Z,3.300000
2019-04-01T12:00:29.594Z,3.300000
2019-04-01T12:02:59.904Z,3.300000
2019-04-01T12:05:30.317Z,4.000000
2019-04-01T12:08:00.688Z,4.000000
2019-04-01T12:10:31.099Z,4.600000
2019-04-01T12:13:01.539Z,4.600000
2019-04-01T12:15:32.663Z,6.200000
2019-04-01T12:18:02.951Z,6.200000
2019-04-01T12:20:33.352Z,5.100000
2019-04-01T12:23:03.680Z,5.100000
2019-04-01T12:25:34.021Z,2.500000
2019-04-01T12:28:04.334Z,2.500000
2019-04-01T12:30:34.861Z,3.500000
2019-04-01T12:33:05.176Z,3.500000
2019-04-01T12:35:35.501Z,3.200000
2019-04-01T12:38:05.822Z,3.200000
2019-04-01T12:40:36.130Z,3.700000
2019-04-01T12:43:06.531Z,3.700000
2019-04-01T12:45:36.933Z,3.100000
2019-04-01T12:48:07.252Z,3.100000
2019-04-01T12:50:37.482Z,5.500000
2019-04-01T12:53:07.765Z,5.500000
2019-04-01T12:55:38.357Z,4.800000
2019-04-01T12:58:08.798Z,4.800000
2019-04-01T13:00:39.115Z,3.400000
2019-04-01T13:03:09.426Z,3.400000
2019-04-01T13:05:39.730Z,4.800000
2019-04-01T13:08:09.936Z,4.800000
2019-04-01T13:10:40.238Z,3.900000
2019-04-01T13:13:13.022Z,3.900000
2019-04-01T13:15:43.545Z,4.200000
2019-04-01T13:18:13.802Z,4.200000
2019-04-01T13:20:44.165Z,2.600000
2019-04-01T13:23:14.517Z,2.600000
2019-04-01T13:25:44.857Z,5.400000
2019-04-01T13:28:15.268Z,5.400000
2019-04-01T13:30:45.563Z,4.500000
2019-04-01T13:33:17.014Z,4.500000
2019-04-01T13:35:47.480Z,2.800000
2019-04-01T13:38:17.855Z,2.800000
2019-04-01T13:40:48.259Z,4.300000
2019-04-01T13:43:18.571Z,4.300000
2019-04-01T13:45:50.153Z,3.000000
2019-04-01T13:48:20.670Z,3.000000
2019-04-01T13:50:50.937Z,3.800000
2019-04-01T13:53:21.241Z,3.800000
2019-04-01T13:55:51.730Z,4.300000
2019-04-01T13:58:22.045Z,4.300000
2019-04-01T14:00:52.354Z,3.000000
2019-04-01T14:03:22.751Z,3.000000
2019-04-01T14:05:53.686Z,3.900000
2019-04-01T14:08:29.728Z,3.900000
2019-04-01T14:11:06.138Z,4.000000
2019-04-01T14:13:36.577Z,4.000000
2019-04-01T14:16:06.998Z,4.300000
2019-04-01T14:18:37.442Z,4.300000
2019-04-01T14:21:16.230Z,3.500000
2019-04-01T14:23:47.999Z,3.500000
2019-04-01T14:26:18.328Z,4.600000
2019-04-01T14:28:48.717Z,4.600000
2019-04-01T14:31:24.121Z,3.600000
2019-04-01T14:33:54.435Z,3.600000
2019-04-01T14:36:24.798Z,2.900000
2019-04-01T14:38:55.160Z,2.900000
2019-04-01T14:41:25.543Z,5.100000
2019-04-01T14:43:55.925Z,5.100000
2019-04-01T14:46:26.297Z,3.500000
2019-04-01T14:49:00.160Z,3.500000
2019-04-01T14:51:30.897Z,3.100000
2019-04-01T14:54:01.259Z,3.100000
2019-04-01T14:56:31.510Z,3.900000
2019-04-01T14:59:01.842Z,3.900000
2019-04-01T15:01:32.184Z,2.400000
2019-04-01T15:04:02.731Z,2.400000
2019-04-01T15:06:33.156Z,4.700000
2019-04-01T15:09:03.376Z,4.700000
2019-04-01T15:11:33.697Z,6.200000
2019-04-01T15:14:04.164Z,6.200000
2019-04-01T15:16:34.590Z,5.600000
2019-04-01T15:19:04.948Z,5.600000
2019-04-01T15:21:35.366Z,5.500000
2019-04-01T15:24:05.682Z,5.500000
2019-04-01T15:26:36.092Z,3.800000
2019-04-01T15:29:06.426Z,3.800000
2019-04-01T15:31:36.779Z,5.300000
2019-04-01T15:34:09.182Z,5.300000
2019-04-01T15:36:39.874Z,5.300000
2019-04-01T15:39:10.180Z,8.000000
2019-04-01T15:41:40.475Z,8.000000
2019-04-01T15:44:10.767Z,4.900000
2019-04-01T15:46:41.096Z,4.900000
2019-04-01T15:49:11.666Z,5.500000
2019-04-01T15:51:42.147Z,5.500000
2019-04-01T15:54:17.584Z,7.000000
2019-04-01T15:56:47.877Z,7.000000
2019-04-01T15:59:18.273Z,5.700000
2019-04-01T16:01:48.636Z,5.700000
2019-04-01T16:04:18.891Z,4.900000
2019-04-01T16:06:49.280Z,4.900000
2019-04-01T16:09:19.784Z,6.000000
2019-04-01T16:11:50.200Z,6.000000
2019-04-01T16:14:20.576Z,6.600000
2019-04-01T16:16:50.845Z,6.600000
2019-04-01T16:19:21.231Z,5.700000
2019-04-01T16:21:52.183Z,5.700000
2019-04-01T16:24:23.384Z,4.200000
2019-04-01T16:26:53.844Z,4.200000
2019-04-01T16:29:24.284Z,4.700000
2019-04-01T16:31:55.513Z,4.700000
2019-04-01T16:34:26.655Z,6.400000
2019-04-01T16:36:57.108Z,6.400000
2019-04-01T16:39:27.333Z,8.400000
2019-04-01T16:41:57.671Z,8.400000
2019-04-01T16:44:28.085Z,4.400000
2019-04-01T16:46:58.317Z,4.400000
2019-04-01T16:49:28.636Z,5.100000
2019-04-01T16:52:00.213Z,5.100000
2019-04-01T16:54:30.669Z,12.200000
2019-04-01T16:57:01.074Z,12.200000
2019-04-01T16:59:31.304Z,5.200000
2019-04-01T17:02:01.815Z,5.200000
2019-04-01T17:04:32.150Z,5.600000
2019-04-01T17:07:02.437Z,5.600000
2019-04-01T17:09:32.759Z,6.300000
2019-04-01T17:12:03.099Z,6.300000
2019-04-01T17:14:33.538Z,6.700000
2019-04-01T17:17:03.844Z,6.700000
2019-04-01T17:19:34.237Z,8.800000
2019-04-01T17:22:04.639Z,8.800000
2019-04-01T17:24:35.035Z,6.400000
2019-04-01T17:27:05.576Z,6.400000
2019-04-01T17:29:36.001Z,6.500000
2019-04-01T17:32:06.530Z,6.500000
2019-04-01T17:34:36.867Z,5.500000
2019-04-01T17:37:08.296Z,5.500000
2019-04-01T17:39:39.688Z,13.100000
2019-04-01T17:42:10.134Z,13.100000
2019-04-01T17:44:42.289Z,16.400000
2019-04-01T17:47:12.842Z,16.400000
2019-04-01T17:49:43.214Z,32.000000
2019-04-01T17:52:13.563Z,32.000000
2019-04-01T17:54:44.003Z,13.300000
2019-04-01T17:57:15.965Z,13.300000
2019-04-01T17:59:46.374Z,7.300000
2019-04-01T18:02:16.835Z,7.300000
2019-04-01T18:04:47.245Z,19.500000
2019-04-01T18:07:17.593Z,19.500000
2019-04-01T18:09:53.006Z,11.700000
2019-04-01T18:12:24.004Z,11.700000
2019-04-01T18:14:54.573Z,27.200000
2019-04-01T18:17:25.026Z,27.200000
2019-04-01T18:19:55.445Z,11.700000
2019-04-01T18:22:25.750Z,11.700000
2019-04-01T18:24:56.113Z,27.700000
2019-04-01T18:27:31.513Z,27.700000
2019-04-01T18:30:01.918Z,37.400000
2019-04-01T18:32:32.295Z,37.400000
2019-04-01T18:35:04.179Z,41.700000
2019-04-01T18:37:34.767Z,41.700000
2019-04-01T18:40:05.108Z,40.100000
2019-04-01T18:42:35.521Z,40.100000
2019-04-01T18:45:05.821Z,22.500000
2019-04-01T18:47:38.906Z,22.500000
2019-04-01T18:50:09.641Z,17.200000
2019-04-01T18:52:39.942Z,17.200000
2019-04-01T18:55:10.366Z,16.700000
2019-04-01T18:57:40.745Z,16.700000
2019-04-01T19:00:11.084Z,34.700000
2019-04-01T19:02:42.241Z,34.700000
2019-04-01T19:05:12.853Z,24.300000
2019-04-01T19:07:43.179Z,24.300000
2019-04-01T19:10:13.564Z,30.600000
2019-04-01T19:12:43.941Z,30.600000
2019-04-01T19:15:14.277Z,22.300000
2019-04-01T19:17:44.676Z,22.300000
2019-04-01T19:20:15.051Z,19.700000
2019-04-01T19:22:45.289Z,19.700000
2019-04-01T19:25:15.678Z,28.100000
2019-04-01T19:27:46.026Z,28.100000
2019-04-01T19:30:16.266Z,15.600000
2019-04-01T19:32:46.666Z,15.600000
2019-04-01T19:35:16.950Z,8.200000
2019-04-01T19:37:47.340Z,8.200000
2019-04-01T19:40:20.401Z,10.700000
2019-04-01T19:42:51.021Z,10.700000
2019-04-01T19:45:21.400Z,16.100000
2019-04-01T19:47:51.697Z,16.100000
2019-04-01T19:50:22.051Z,34.200000
2019-04-01T19:52:52.339Z,34.200000
2019-04-01T19:55:22.744Z,26.600000
2019-04-01T19:57:53.134Z,26.600000
2019-04-01T20:00:28.076Z,10.700000
2019-04-01T20:02:58.664Z,10.700000
2019-04-01T20:05:29.062Z,26.000000
2019-04-01T20:07:59.439Z,26.000000
2019-04-01T20:10:29.819Z,21.900000
2019-04-01T20:13:00.112Z,21.900000
2019-04-01T20:15:30.467Z,18.100000
2019-04-01T20:18:00.749Z,18.100000
2019-04-01T20:20:31.246Z,14.500000
2019-04-01T20:23:01.978Z,14.500000
2019-04-01T20:25:37.434Z,14.800000
2019-04-01T20:28:07.699Z,15.200000
2019-04-01T20:30:38.407Z,15.200000
2019-04-01T20:33:17.730Z,16.000000
2019-04-01T20:35:48.668Z,16.000000
2019-04-01T20:38:19.027Z,10.300000
2019-04-01T20:40:49.388Z,10.300000
2019-04-01T20:43:19.743Z,12.400000
2019-04-01T20:45:50.135Z,12.400000
2019-04-01T20:48:20.617Z,10.000000
2019-04-01T20:50:50.972Z,10.000000
2019-04-01T20:53:21.238Z,9.700000
2019-04-01T20:55:51.622Z,9.700000
2019-04-01T20:58:21.971Z,10.500000
2019-04-01T21:00:52.325Z,10.500000
2019-04-01T21:03:22.669Z,8.300000
2019-04-01T21:05:53.289Z,8.300000
2019-04-01T21:08:23.978Z,9.200000
2019-04-01T21:10:54.339Z,9.200000
2019-04-01T21:13:24.678Z,9.100000
2019-04-01T21:15:55.044Z,9.100000
2019-04-01T21:18:25.408Z,8.300000
2019-04-01T21:20:55.771Z,8.300000
2019-04-01T21:23:26.223Z,7.400000
2019-04-01T21:25:56.663Z,7.400000
2019-04-01T21:28:26.986Z,7.900000
2019-04-01T21:30:59.479Z,7.900000
2019-04-01T21:33:29.988Z,9.400000
2019-04-01T21:36:00.279Z,9.400000
2019-04-01T21:38:30.709Z,8.700000
2019-04-01T21:41:00.905Z,8.700000
2019-04-01T21:43:31.250Z,7.200000
2019-04-01T21:46:01.479Z,7.200000
2019-04-01T21:48:31.851Z,8.900000
2019-04-01T21:51:03.982Z,8.900000
2019-04-01T21:53:34.394Z,6.200000
2019-04-01T21:56:04.656Z,6.200000
2019-04-01T21:58:35.002Z,6.100000
2019-04-01T22:01:05.339Z,6.100000
2019-04-01T22:03:35.668Z,5.300000
2019-04-01T22:06:06.012Z,5.300000
2019-04-01T22:08:36.581Z,7.700000
2019-04-01T22:11:06.976Z,7.700000
2019-04-01T22:13:37.353Z,6.500000
2019-04-01T22:16:07.726Z,6.500000
2019-04-01T22:18:38.269Z,5.800000
2019-04-01T22:21:13.601Z,5.800000
2019-04-01T22:23:49.015Z,5.300000
2019-04-01T22:26:19.381Z,5.300000
2019-04-01T22:28:50.990Z,6.400000
2019-04-01T22:31:21.414Z,6.400000
2019-04-01T22:33:51.842Z,5.700000
2019-04-01T22:36:30.882Z,5.700000
2019-04-01T22:39:01.799Z,5.900000
2019-04-01T22:41:32.067Z,5.900000
2019-04-01T22:44:02.367Z,6.000000
2019-04-01T22:46:34.542Z,6.000000
2019-04-01T22:49:05.354Z,3.500000
2019-04-01T22:51:37.131Z,3.500000
2019-04-01T22:54:07.557Z,4.000000
2019-04-01T22:56:37.871Z,4.000000
2019-04-01T22:59:08.085Z,6.600000
2019-04-01T23:01:38.519Z,6.600000
2019-04-01T23:04:09.032Z,5.000000
2019-04-01T23:06:39.857Z,5.000000
2019-04-01T23:09:10.185Z,4.000000
2019-04-01T23:11:40.504Z,4.000000
2019-04-01T23:14:10.831Z,5.900000
2019-04-01T23:16:41.333Z,5.900000
2019-04-01T23:19:11.971Z,5.400000
2019-04-01T23:21:42.337Z,5.400000
2019-04-01T23:24:12.698Z,6.800000
2019-04-01T23:26:43.017Z,6.800000
2019-04-01T23:29:13.344Z,7.300000
2019-04-01T23:31:43.653Z,7.300000
2019-04-01T23:34:14.161Z,5.800000
2019-04-01T23:36:44.873Z,5.800000
2019-04-01T23:39:15.185Z,6.500000
2019-04-01T23:41:45.504Z,6.500000
2019-04-01T23:44:15.812Z,4.000000
2019-04-01T23:46:46.026Z,4.000000
2019-04-01T23:49:16.427Z,5.800000
2019-04-01T23:51:46.746Z,5.800000
2019-04-01T23:54:17.156Z,3.600000
2019-04-01T23:56:47.465Z,3.600000
2019-04-01T23:59:17.852Z,4.700000
